Terminal Aerodrome Forecast
Issued by NWS

Home | Current Version | Previous Version | Graphics & Text | Print | Product List | Glossary On
Versions: 1 2 3 4 5 6 7 8 9 10 11 12 13 14 15 16 17 18 19
000
FTUS43 KGRB 301000 AAA
TAFAUW
TAF AMD
KAUW 301031Z 3011/3106 VRB03KT P6SM VCSH SCT004 OVC025
      TEMPO 3011/3014 3SM -RA BR BKN004
     FM301400 29006KT P6SM VCSH SCT008 OVC025
      TEMPO 3014/3018 5SM -RA BR BKN008
     FM301800 32008KT 5SM HZ VCSH BKN012 BKN035
     FM310000 04003KT P6SM SCT015 SCT040=

USA.gov is the U.S. government's official web portal to all federal, state and local government web resources and services.